Time;durP1;ratioP1;P1;durP2;ratioP2;P2;SDS_P1;SDS_P2;PMS_P1;PMS_P2;Temp;Humidity;BMP_temperature;BMP_pressure;BME280_temperature;BME280_humidity;BME280_pressure;Samples;Min_cycle;Max_cycle;Signal;HPM_P1;HPM_P2
2023/07/13 00:01:53;;;;;;;;;27.00;23.00;28.60;55.00;;;;;;110997;1247;45904;-73
2023/07/13 00:04:24;;;;;;;;;23.00;23.00;28.60;54.90;;;;;;111228;1241;48979;-73
2023/07/13 00:06:52;;;;;;;;;23.25;22.00;28.60;54.90;;;;;;111077;1244;50926;-73
2023/07/13 00:09:19;;;;;;;;;24.00;23.33;28.60;54.90;;;;;;111110;1245;53156;-73
2023/07/13 00:11:51;;;;;;;;;22.00;21.50;28.60;54.90;;;;;;111033;1245;44480;-73
2023/07/13 00:14:18;;;;;;;;;22.00;20.67;28.60;55.00;;;;;;111244;1241;49672;-71
2023/07/13 00:16:46;;;;;;;;;23.33;22.00;28.60;55.00;;;;;;111157;1247;50571;-70
2023/07/13 00:19:13;;;;;;;;;23.00;21.00;28.60;55.00;;;;;;110993;1247;53870;-71
2023/07/13 00:21:41;;;;;;;;;26.00;24.00;28.60;55.10;;;;;;111061;1241;44712;-72
2023/07/13 00:24:15;;;;;;;;;23.75;22.50;28.60;55.10;;;;;;111164;1241;49414;-72
2023/07/13 00:26:45;;;;;;;;;27.50;24.50;28.60;55.00;;;;;;111223;1246;48906;-72
2023/07/13 00:29:13;;;;;;;;;27.00;25.00;28.60;55.00;;;;;;111041;1246;55030;-72
2023/07/13 00:31:40;;;;;;;;;23.00;22.25;28.60;54.90;;;;;;111018;1246;44748;-72
2023/07/13 00:34:07;;;;;;;;;24.00;23.25;28.60;55.00;;;;;;111128;1241;49105;-73
2023/07/13 00:36:34;;;;;;;;;24.00;21.50;28.50;54.90;;;;;;111299;1245;51094;-72
2023/07/13 00:39:01;;;;;;;;;23.33;22.67;28.50;54.90;;;;;;111117;1244;54237;-72
2023/07/13 00:41:31;;;;;;;;;22.75;20.00;28.50;54.80;;;;;;111063;1247;45573;-72
2023/07/13 00:43:57;;;;;;;;;22.67;21.00;28.50;54.80;;;;;;111088;1244;49390;-72
2023/07/13 00:46:24;;;;;;;;;24.00;23.00;28.50;55.00;;;;;;111387;1243;49921;-72
2023/07/13 00:48:53;;;;;;;;;22.00;20.75;28.50;54.80;;;;;;111043;1247;54822;-72
2023/07/13 00:51:27;;;;;;;;;23.50;22.00;28.50;54.80;;;;;;111068;1247;45527;-72
2023/07/13 00:53:56;;;;;;;;;22.00;20.33;28.50;54.80;;;;;;111109;1241;49214;-72
2023/07/13 00:56:24;;;;;;;;;25.00;24.00;28.50;54.80;;;;;;111387;1247;50201;-71
2023/07/13 00:58:51;;;;;;;;;22.50;22.00;28.50;54.80;;;;;;111020;1244;53819;-71
2023/07/13 01:01:17;;;;;;;;;21.25;20.00;28.50;54.90;;;;;;111019;1244;44809;-72
2023/07/13 01:03:44;;;;;;;;;21.00;20.00;28.50;54.80;;;;;;111031;1247;48796;-73
2023/07/13 01:06:11;;;;;;;;;23.00;22.00;28.50;54.90;;;;;;111411;1247;49502;-72
2023/07/13 01:08:39;;;;;;;;;23.00;21.33;28.50;54.80;;;;;;111023;1247;54023;-76
2023/07/13 01:11:07;;;;;;;;;25.33;23.00;28.50;54.80;;;;;;111081;1247;44976;-72
2023/07/13 01:13:34;;;;;;;;;23.00;21.75;28.50;54.80;;;;;;111043;1247;49763;-72
2023/07/13 01:16:07;;;;;;;;;23.00;21.00;28.40;54.70;;;;;;111381;1245;49301;-72
2023/07/13 01:18:34;;;;;;;;;21.50;20.00;28.50;54.80;;;;;;111038;1244;53226;-72
2023/07/13 01:21:04;;;;;;;;;25.00;23.67;28.40;54.70;;;;;;111045;1243;45102;-69
2023/07/13 01:23:32;;;;;;;;;22.50;21.25;28.50;54.70;;;;;;111043;1244;49913;-69
2023/07/13 01:26:00;;;;;;;;;24.50;23.00;28.40;54.70;;;;;;111344;1248;49443;-72
2023/07/13 01:28:27;;;;;;;;;21.75;21.00;28.40;54.70;;;;;;111038;1248;53936;-71
2023/07/13 01:30:56;;;;;;;;;23.00;22.67;28.40;54.70;;;;;;111098;1247;45595;-73
2023/07/13 01:33:24;;;;;;;;;22.00;20.00;28.40;55.20;;;;;;111080;1241;48794;-74
2023/07/13 01:35:51;;;;;;;;;24.75;22.75;28.40;54.70;;;;;;111343;1241;48899;-71
2023/07/13 01:38:22;;;;;;;;;20.00;19.25;28.40;54.90;;;;;;111052;1247;54339;-73
2023/07/13 01:40:50;;;;;;;;;24.00;22.75;28.40;54.70;;;;;;111070;1241;45719;-73
2023/07/13 01:43:18;;;;;;;;;22.50;21.75;28.40;54.70;;;;;;111041;1247;49594;-74
2023/07/13 01:45:46;;;;;;;;;24.33;23.67;28.40;54.70;;;;;;111332;1247;49615;-71
2023/07/13 01:48:13;;;;;;;;;21.00;20.50;28.40;54.90;;;;;;111012;1246;54268;-74
2023/07/13 01:50:40;;;;;;;;;23.00;21.00;28.40;54.70;;;;;;111067;1241;45635;-73
2023/07/13 01:53:08;;;;;;;;;22.00;21.00;28.40;54.60;;;;;;111018;1243;49965;-75
2023/07/13 01:55:35;;;;;;;;;21.33;20.67;28.40;54.70;;;;;;111356;1246;49788;-75
2023/07/13 01:58:02;;;;;;;;;22.25;21.25;28.30;54.70;;;;;;111043;1241;53903;-74
2023/07/13 02:00:29;;;;;;;;;22.00;20.00;28.30;54.60;;;;;;111001;1247;44475;-73
2023/07/13 02:02:57;;;;;;;;;23.00;21.00;28.30;54.60;;;;;;111032;1241;50565;-72
2023/07/13 02:05:24;;;;;;;;;20.00;19.00;28.30;54.60;;;;;;111366;1246;50128;-72
2023/07/13 02:07:51;;;;;;;;;22.00;20.50;28.30;54.70;;;;;;111049;1241;54521;-72
2023/07/13 02:10:17;;;;;;;;;24.00;22.00;28.30;54.60;;;;;;110952;1247;45705;-71
2023/07/13 02:12:45;;;;;;;;;22.00;21.25;28.30;54.60;;;;;;110999;1244;49456;-72
2023/07/13 02:15:12;;;;;;;;;23.50;22.00;28.30;54.60;;;;;;111311;1247;49826;-74
2023/07/13 02:17:39;;;;;;;;;19.00;18.00;28.30;54.70;;;;;;111063;1241;53651;-74
2023/07/13 02:20:07;;;;;;;;;23.00;21.00;28.30;54.60;;;;;;111073;1243;44993;-74
2023/07/13 02:22:33;;;;;;;;;22.00;21.00;28.30;54.80;;;;;;111071;1241;49066;-72
2023/07/13 02:25:01;;;;;;;;;23.00;21.00;28.30;54.90;;;;;;111331;1241;49178;-73
2023/07/13 02:27:28;;;;;;;;;22.00;21.00;28.30;54.70;;;;;;111016;1244;54505;-73
2023/07/13 02:29:54;;;;;;;;;19.00;18.25;28.20;54.60;;;;;;111041;1247;44925;-73
2023/07/13 02:32:22;;;;;;;;;19.00;18.00;28.20;54.80;;;;;;111012;1241;49104;-73
2023/07/13 02:34:49;;;;;;;;;22.00;21.00;28.20;54.50;;;;;;111331;1243;49646;-72
2023/07/13 02:37:16;;;;;;;;;19.50;19.00;28.20;54.60;;;;;;110991;1247;53337;-72
2023/07/13 02:39:43;;;;;;;;;19.00;18.67;28.20;54.80;;;;;;111031;1245;44748;-72
2023/07/13 02:42:10;;;;;;;;;19.33;19.00;28.20;54.60;;;;;;111060;1243;49737;-71
2023/07/13 02:44:37;;;;;;;;;19.00;19.00;28.20;54.60;;;;;;111349;1244;49591;-73
2023/07/13 02:47:03;;;;;;;;;22.33;19.67;28.20;54.60;;;;;;111072;1246;53961;-72
2023/07/13 02:49:30;;;;;;;;;22.00;20.00;28.20;54.60;;;;;;111025;1246;45580;-71
2023/07/13 02:51:57;;;;;;;;;23.00;22.00;28.20;54.50;;;;;;111047;1247;50127;-70
2023/07/13 02:54:24;;;;;;;;;21.50;19.50;28.20;54.50;;;;;;111326;1241;49238;-70
2023/07/13 02:56:51;;;;;;;;;20.00;19.00;28.20;54.60;;;;;;111070;1247;53415;-70
2023/07/13 02:59:18;;;;;;;;;19.67;19.00;28.20;54.50;;;;;;111053;1242;44330;-70
2023/07/13 03:01:45;;;;;;;;;23.00;20.00;28.20;54.50;;;;;;111039;1247;49393;-72
2023/07/13 03:04:12;;;;;;;;;21.50;18.25;28.20;54.50;;;;;;111157;1247;49774;-73
2023/07/13 03:06:39;;;;;;;;;21.67;21.00;28.20;54.60;;;;;;111243;1243;53637;-71
2023/07/13 03:09:06;;;;;;;;;21.33;19.33;28.20;54.50;;;;;;111070;1241;44851;-71
2023/07/13 03:11:36;;;;;;;;;19.00;18.00;28.20;54.50;;;;;;111023;1245;49234;-71
2023/07/13 03:14:02;;;;;;;;;21.25;18.25;28.20;54.70;;;;;;111071;1241;49130;-72
2023/07/13 03:16:29;;;;;;;;;20.25;19.25;28.20;54.60;;;;;;111327;1241;53508;-73
2023/07/13 03:18:56;;;;;;;;;20.00;18.00;28.10;54.50;;;;;;111069;1241;45269;-71
2023/07/13 03:21:23;;;;;;;;;19.25;18.00;28.10;54.40;;;;;;111059;1248;48997;-72
2023/07/13 03:23:50;;;;;;;;;23.25;21.25;28.10;54.50;;;;;;111043;1241;49187;-73
2023/07/13 03:26:19;;;;;;;;;20.00;20.00;28.10;54.50;;;;;;111381;1247;54118;-72
2023/07/13 03:28:46;;;;;;;;;19.75;18.50;28.10;54.50;;;;;;111062;1242;44810;-72
2023/07/13 03:31:17;;;;;;;;;19.67;18.67;28.10;54.50;;;;;;111039;1248;50536;-72
2023/07/13 03:33:44;;;;;;;;;20.75;19.75;28.10;54.40;;;;;;111104;1247;49163;-72
2023/07/13 03:36:18;;;;;;;;;23.00;21.75;28.10;54.50;;;;;;111351;1242;53797;-72
2023/07/13 03:38:47;;;;;;;;;20.50;20.00;28.10;54.60;;;;;;111045;1241;45523;-73
2023/07/13 03:41:16;;;;;;;;;19.50;18.50;28.10;54.40;;;;;;110958;1248;49588;-70
2023/07/13 03:43:45;;;;;;;;;19.00;18.25;28.10;54.40;;;;;;111089;1241;49637;-72
2023/07/13 03:46:11;;;;;;;;;22.00;21.75;28.10;54.40;;;;;;111407;1246;53431;-72
2023/07/13 03:48:40;;;;;;;;;23.00;21.00;28.10;54.40;;;;;;111085;1247;45445;-70
2023/07/13 03:51:07;;;;;;;;;23.25;20.25;28.10;54.30;;;;;;111018;1247;49428;-71
2023/07/13 03:53:38;;;;;;;;;17.00;16.50;28.10;54.40;;;;;;111077;1244;49203;-70
2023/07/13 03:56:05;;;;;;;;;18.50;18.00;28.10;54.60;;;;;;111495;1243;54632;-72
2023/07/13 03:58:37;;;;;;;;;20.50;18.50;28.10;54.40;;;;;;111044;1242;45276;-72
2023/07/13 04:01:06;;;;;;;;;21.50;19.75;28.10;54.40;;;;;;111076;1241;50033;-71
2023/07/13 04:03:34;;;;;;;;;22.00;20.00;28.10;54.30;;;;;;111049;1241;49074;-71
2023/07/13 04:06:02;;;;;;;;;21.00;19.00;28.10;54.50;;;;;;111214;1246;54499;-70
2023/07/13 04:08:32;;;;;;;;;23.00;19.00;28.10;54.40;;;;;;111036;1241;44480;-70
2023/07/13 04:10:59;;;;;;;;;18.67;17.67;28.10;54.50;;;;;;111051;1244;49247;-73
2023/07/13 04:13:26;;;;;;;;;18.50;17.00;28.10;54.30;;;;;;111063;1244;49401;-72
2023/07/13 04:15:54;;;;;;;;;20.67;20.00;28.10;54.40;;;;;;111342;1247;54981;-74
2023/07/13 04:18:21;;;;;;;;;20.50;20.00;28.10;54.40;;;;;;111059;1241;44311;-72
2023/07/13 04:20:49;;;;;;;;;20.00;18.33;28.10;54.40;;;;;;111057;1247;49549;-73
2023/07/13 04:23:18;;;;;;;;;17.67;17.00;28.10;54.40;;;;;;111056;1247;48907;-80
2023/07/13 04:25:49;;;;;;;;;19.67;17.67;28.10;54.60;;;;;;111380;1247;53982;-82
2023/07/13 04:28:17;;;;;;;;;17.25;16.50;28.10;54.50;;;;;;111071;1247;44411;-79
2023/07/13 04:30:44;;;;;;;;;19.00;18.50;28.10;54.40;;;;;;111062;1244;49222;-67
2023/07/13 04:33:11;;;;;;;;;20.67;19.67;28.10;54.40;;;;;;111113;1242;49270;-79
2023/07/13 04:35:38;;;;;;;;;20.25;18.50;28.10;54.40;;;;;;111335;1243;53591;-78
2023/07/13 04:38:05;;;;;;;;;23.75;23.25;28.00;54.40;;;;;;111200;1241;45398;-67
2023/07/13 04:40:32;;;;;;;;;30.75;28.75;28.00;55.50;;;;;;111070;1241;49970;-68
2023/07/13 04:42:59;;;;;;;;;31.00;30.00;28.00;56.00;;;;;;111066;1247;50086;-67
2023/07/13 04:45:26;;;;;;;;;31.25;28.00;28.00;56.50;;;;;;111346;1242;54152;-72
2023/07/13 04:47:53;;;;;;;;;33.00;30.67;28.00;56.40;;;;;;111062;1241;45687;-71
2023/07/13 04:50:22;;;;;;;;;27.00;26.00;28.00;56.90;;;;;;111051;1246;49631;-72
2023/07/13 04:52:50;;;;;;;;;30.67;25.67;28.00;56.90;;;;;;111072;1247;49376;-72
2023/07/13 04:55:19;;;;;;;;;31.00;29.50;28.00;57.00;;;;;;111375;1247;53893;-71
2023/07/13 04:57:46;;;;;;;;;29.50;27.50;28.00;56.90;;;;;;111124;1241;44747;-73
2023/07/13 05:00:15;;;;;;;;;27.33;26.00;28.00;56.80;;;;;;111191;1247;49421;-72
2023/07/13 05:02:45;;;;;;;;;30.33;27.00;28.00;56.80;;;;;;111159;1247;48861;-71
2023/07/13 05:05:12;;;;;;;;;31.00;29.00;28.00;57.40;;;;;;112448;1246;53407;-70
2023/07/13 05:07:39;;;;;;;;;32.75;29.75;28.10;57.40;;;;;;111112;1243;44814;-68
2023/07/13 05:10:07;;;;;;;;;28.33;27.33;28.10;56.80;;;;;;111087;1247;49309;-68
2023/07/13 05:12:34;;;;;;;;;30.00;28.00;28.20;56.70;;;;;;111083;1247;49167;-67
2023/07/13 05:15:02;;;;;;;;;33.67;29.00;28.10;56.60;;;;;;111361;1246;54253;-67
2023/07/13 05:17:29;;;;;;;;;27.75;26.50;28.10;56.50;;;;;;111074;1242;45543;-68
2023/07/13 05:19:55;;;;;;;;;26.25;25.75;28.10;56.40;;;;;;111054;1246;50605;-68
2023/07/13 05:22:22;;;;;;;;;29.67;25.33;28.10;56.30;;;;;;111058;1247;50343;-68
2023/07/13 05:24:49;;;;;;;;;28.00;27.00;28.10;56.30;;;;;;111330;1247;53422;-69
2023/07/13 05:27:16;;;;;;;;;27.25;25.25;28.10;56.20;;;;;;111073;1242;45673;-69
2023/07/13 05:29:44;;;;;;;;;26.50;25.00;28.20;56.10;;;;;;111056;1243;50416;-68
2023/07/13 05:32:11;;;;;;;;;29.00;27.67;28.20;56.00;;;;;;111081;1244;49244;-70
2023/07/13 05:34:38;;;;;;;;;26.25;24.00;28.20;56.20;;;;;;111384;1244;53406;-68
2023/07/13 05:37:05;;;;;;;;;25.67;24.33;28.20;56.00;;;;;;110577;1244;631209;-68
2023/07/13 05:39:32;;;;;;;;;27.00;27.00;28.20;55.90;;;;;;111103;1242;48818;-68
2023/07/13 05:41:59;;;;;;;;;29.25;26.25;28.20;55.90;;;;;;111063;1241;49731;-69
2023/07/13 05:44:26;;;;;;;;;27.33;24.67;28.20;56.00;;;;;;111341;1241;54652;-69
2023/07/13 05:46:53;;;;;;;;;24.50;23.50;28.30;55.80;;;;;;111105;1241;44138;-70
2023/07/13 05:49:20;;;;;;;;;29.00;25.00;28.30;55.70;;;;;;111052;1243;49407;-69
2023/07/13 05:51:46;;;;;;;;;24.50;23.25;28.30;55.70;;;;;;111084;1248;49056;-68
2023/07/13 05:54:13;;;;;;;;;28.00;25.50;28.30;55.90;;;;;;111163;1244;53747;-69
2023/07/13 05:56:40;;;;;;;;;25.25;23.75;28.30;55.50;;;;;;111167;1245;44831;-69
2023/07/13 05:59:07;;;;;;;;;28.00;26.00;28.30;55.50;;;;;;111039;1247;49379;-68
2023/07/13 06:01:34;;;;;;;;;23.25;22.25;28.40;55.50;;;;;;111059;1242;48900;-69
2023/07/13 06:04:01;;;;;;;;;26.75;25.50;28.40;55.50;;;;;;111015;1241;54221;-67
2023/07/13 06:06:28;;;;;;;;;25.67;24.67;28.40;55.50;;;;;;111311;1243;44896;-68
2023/07/13 06:08:55;;;;;;;;;26.00;24.50;28.40;55.40;;;;;;111038;1247;50098;-68
2023/07/13 06:11:25;;;;;;;;;22.00;21.00;28.40;55.40;;;;;;111053;1241;50245;-68
2023/07/13 06:13:52;;;;;;;;;27.00;25.00;28.40;55.30;;;;;;111084;1243;54600;-68
2023/07/13 06:16:19;;;;;;;;;22.00;22.00;28.50;55.30;;;;;;111323;1246;44271;-67
2023/07/13 06:18:46;;;;;;;;;25.75;23.00;28.50;55.30;;;;;;111058;1247;49124;-68
2023/07/13 06:21:15;;;;;;;;;26.00;24.00;28.50;55.20;;;;;;111052;1247;49441;-70
2023/07/13 06:23:43;;;;;;;;;39.25;32.50;28.50;55.50;;;;;;111025;1242;53918;-71
2023/07/13 06:26:11;;;;;;;;;36.75;32.25;28.50;57.20;;;;;;111351;1248;44744;-69
2023/07/13 06:28:39;;;;;;;;;39.50;33.50;28.50;57.50;;;;;;111086;1247;49521;-69
2023/07/13 06:31:08;;;;;;;;;37.00;32.00;28.50;57.70;;;;;;111053;1247;48909;-70
2023/07/13 06:33:36;;;;;;;;;38.00;33.75;28.50;57.80;;;;;;111048;1248;54125;-69
2023/07/13 06:36:05;;;;;;;;;39.25;33.00;28.50;57.80;;;;;;111524;1241;43957;-68
2023/07/13 06:38:32;;;;;;;;;39.00;32.00;28.50;58.20;;;;;;111274;1244;49793;-70
2023/07/13 06:40:59;;;;;;;;;35.00;31.00;28.50;58.10;;;;;;111304;1242;50261;-70
2023/07/13 06:43:26;;;;;;;;;39.67;31.67;28.50;58.30;;;;;;111261;1241;53498;-68
2023/07/13 06:45:55;;;;;;;;;32.67;29.00;28.50;57.80;;;;;;111505;1247;45440;-68
2023/07/13 06:48:22;;;;;;;;;34.50;31.50;28.50;58.00;;;;;;111330;1244;49238;-65
2023/07/13 06:50:50;;;;;;;;;39.33;34.00;28.50;58.40;;;;;;111331;1246;49405;-65
2023/07/13 06:53:19;;;;;;;;;35.00;32.00;28.50;57.90;;;;;;111449;1246;55076;-67
2023/07/13 06:55:46;;;;;;;;;35.00;32.00;28.50;58.00;;;;;;111496;1244;44773;-67
2023/07/13 06:58:14;;;;;;;;;35.50;31.25;28.50;58.10;;;;;;111330;1244;48832;-66
2023/07/13 07:00:41;;;;;;;;;36.00;31.00;28.60;58.00;;;;;;111289;1242;49281;-66
2023/07/13 07:03:08;;;;;;;;;34.67;30.67;28.60;57.90;;;;;;111341;1247;53892;-68
2023/07/13 07:05:35;;;;;;;;;34.00;31.33;28.60;58.00;;;;;;111585;1244;44768;-69
2023/07/13 07:08:02;;;;;;;;;32.50;29.00;28.60;58.10;;;;;;111320;1248;49765;-70
2023/07/13 07:10:29;;;;;;;;;35.00;29.50;28.70;57.90;;;;;;111316;1247;50056;-70
2023/07/13 07:12:56;;;;;;;;;34.00;29.75;28.70;57.70;;;;;;111519;1241;53773;-70
2023/07/13 07:15:23;;;;;;;;;33.00;30.00;28.70;57.60;;;;;;111605;1241;45161;-70
2023/07/13 07:17:50;;;;;;;;;35.00;30.25;28.70;57.40;;;;;;111525;1246;49739;-71
2023/07/13 07:20:17;;;;;;;;;34.25;30.50;28.80;57.30;;;;;;111549;1241;49726;-71
2023/07/13 07:22:44;;;;;;;;;36.25;32.00;28.80;57.40;;;;;;111383;1243;53933;-69
2023/07/13 07:25:11;;;;;;;;;37.25;31.75;28.80;57.30;;;;;;111687;1244;44511;-68
2023/07/13 07:27:38;;;;;;;;;34.00;31.00;28.90;57.50;;;;;;111391;1241;49963;-68
2023/07/13 07:30:06;;;;;;;;;33.50;30.50;28.90;57.30;;;;;;111374;1243;48967;-68
2023/07/13 07:32:33;;;;;;;;;32.33;29.33;28.90;57.30;;;;;;111347;1244;53164;-69
2023/07/13 07:35:00;;;;;;;;;32.00;30.00;28.90;57.10;;;;;;111598;1244;44429;-68
2023/07/13 07:37:27;;;;;;;;;34.33;30.00;29.00;57.10;;;;;;111349;1246;50352;-67
2023/07/13 07:39:54;;;;;;;;;31.33;29.00;29.00;57.10;;;;;;111458;1244;49892;-73
2023/07/13 07:42:21;;;;;;;;;34.75;32.00;29.00;57.00;;;;;;111582;1245;53966;-72
2023/07/13 07:44:48;;;;;;;;;30.75;28.25;29.00;56.90;;;;;;111766;1246;44551;-72
2023/07/13 07:47:15;;;;;;;;;33.50;30.00;29.00;58.00;;;;;;111585;1247;50029;-71
2023/07/13 07:49:42;;;;;;;;;31.33;28.33;29.10;57.10;;;;;;111611;1244;49111;-81
2023/07/13 07:52:09;;;;;;;;;33.00;30.00;29.20;57.20;;;;;;111698;1246;54096;-67
2023/07/13 07:54:36;;;;;;;;;33.75;31.50;29.30;57.50;;;;;;111662;1241;44971;-70
2023/07/13 07:57:03;;;;;;;;;33.75;31.00;29.30;56.90;;;;;;111430;1241;49096;-75
2023/07/13 07:59:30;;;;;;;;;31.67;29.67;29.30;57.10;;;;;;111601;1241;49556;-71
2023/07/13 08:01:57;;;;;;;;;32.67;29.33;29.40;57.30;;;;;;111452;1244;54221;-68
2023/07/13 08:04:24;;;;;;;;;36.00;31.00;29.40;57.30;;;;;;111601;1247;44992;-73
2023/07/13 08:06:51;;;;;;;;;31.50;29.25;29.40;57.40;;;;;;111503;1241;49696;-76
2023/07/13 08:09:18;;;;;;;;;31.00;29.75;29.40;57.70;;;;;;111434;1241;49373;-73
2023/07/13 08:11:45;;;;;;;;;37.00;32.00;29.40;57.50;;;;;;111491;1241;54112;-70
2023/07/13 08:14:12;;;;;;;;;33.33;31.00;29.40;57.20;;;;;;111637;1247;44902;-76
2023/07/13 08:16:39;;;;;;;;;31.00;29.00;29.40;57.20;;;;;;111311;1243;49682;-73
2023/07/13 08:19:06;;;;;;;;;30.67;29.33;29.40;57.50;;;;;;111277;1243;50107;-73
2023/07/13 08:21:33;;;;;;;;;32.00;29.67;29.40;57.20;;;;;;111250;1243;53935;-71
2023/07/13 08:24:00;;;;;;;;;36.67;32.33;29.40;57.10;;;;;;111322;1244;44471;-68
2023/07/13 08:26:27;;;;;;;;;32.75;30.25;29.40;57.30;;;;;;111382;1244;49122;-68
2023/07/13 08:28:53;;;;;;;;;30.00;29.00;29.30;57.40;;;;;;111377;1246;49274;-69
2023/07/13 08:31:20;;;;;;;;;34.00;31.00;29.40;57.40;;;;;;111360;1247;53453;-75
2023/07/13 08:33:47;;;;;;;;;31.67;29.33;29.40;57.40;;;;;;111649;1243;44798;-74
2023/07/13 08:36:14;;;;;;;;;36.00;31.50;29.40;57.50;;;;;;111526;1244;49701;-71
2023/07/13 08:38:41;;;;;;;;;31.00;29.00;29.40;57.70;;;;;;111544;1246;49728;-71
2023/07/13 08:41:17;;;;;;;;;30.25;29.00;29.40;58.00;;;;;;111500;1241;54541;-75
2023/07/13 08:44:07;;;;;;;;;33.50;29.50;29.40;57.80;;;;;;111239;1248;44808;-76
2023/07/13 08:46:37;;;;;;;;;31.25;30.00;29.40;58.20;;;;;;111646;1244;49099;-75
2023/07/13 08:49:10;;;;;;;;;28.00;26.67;29.40;58.00;;;;;;111538;1247;49610;-74
2023/07/13 08:51:49;;;;;;;;;26.25;25.25;29.40;57.30;;;;;;111433;1247;54854;-75
2023/07/13 08:54:39;;;;;;;;;26.33;25.33;29.40;57.00;;;;;;111409;1244;45204;-75
2023/07/13 08:57:30;;;;;;;;;24.67;23.33;29.40;56.90;;;;;;111092;1247;49356;-72
2023/07/13 08:59:58;;;;;;;;;28.50;26.75;29.40;57.20;;;;;;111356;1244;50871;-75
2023/07/13 09:02:42;;;;;;;;;26.67;25.33;29.40;57.10;;;;;;111341;1247;53160;-75
2023/07/13 09:05:40;;;;;;;;;22.50;22.00;29.40;56.90;;;;;;111369;1243;44501;-71
2023/07/13 09:08:22;;;;;;;;;25.50;23.50;29.40;56.60;;;;;;111069;1245;49730;-73
2023/07/13 09:10:53;;;;;;;;;24.67;22.00;29.30;56.60;;;;;;111429;1241;48908;-78
2023/07/13 09:13:43;;;;;;;;;20.00;18.75;29.30;56.30;;;;;;111284;1243;53301;-75
2023/07/13 09:16:11;;;;;;;;;15.67;15.00;29.20;55.70;;;;;;111382;1242;44322;-76
2023/07/13 09:18:42;;;;;;;;;19.67;17.33;29.20;55.50;;;;;;111098;1247;51157;-74
2023/07/13 09:21:14;;;;;;;;;16.50;16.00;29.20;55.10;;;;;;111133;1247;50620;-75
2023/07/13 09:23:41;;;;;;;;;17.67;15.00;29.10;55.00;;;;;;111118;1247;53355;-76
2023/07/13 09:26:16;;;;;;;;;15.00;14.00;29.10;55.00;;;;;;111409;1241;44417;-74
2023/07/13 09:28:46;;;;;;;;;19.00;16.50;29.00;55.00;;;;;;111185;1246;49987;-77
2023/07/13 09:31:16;;;;;;;;;14.25;13.25;29.00;55.10;;;;;;111157;1247;50647;-73
2023/07/13 09:33:43;;;;;;;;;19.00;15.33;29.00;55.10;;;;;;111111;1246;53788;-74
2023/07/13 09:36:18;;;;;;;;;17.25;15.00;28.90;55.30;;;;;;111369;1247;45334;-73
2023/07/13 09:38:46;;;;;;;;;16.00;15.00;28.90;55.60;;;;;;111088;1241;49162;-74
2023/07/13 09:42:01;;;;;;;;;17.25;13.00;28.90;55.70;;;;;;111065;1247;49716;-72
2023/07/13 09:44:35;;;;;;;;;15.00;13.00;28.90;55.80;;;;;;110816;1250;54085;-73
2023/07/13 09:47:03;;;;;;;;;15.00;12.00;28.80;55.70;;;;;;110808;1250;45553;-72
2023/07/13 09:49:35;;;;;;;;;15.50;12.75;28.80;55.60;;;;;;111178;1244;48873;-73
2023/07/13 09:52:09;;;;;;;;;17.00;16.00;28.80;55.70;;;;;;111211;1250;49547;-72
2023/07/13 09:54:37;;;;;;;;;17.00;15.67;28.90;56.00;;;;;;111616;1247;54647;-71
2023/07/13 09:57:13;;;;;;;;;14.33;13.00;28.90;55.90;;;;;;111067;1245;44538;-73
2023/07/13 09:59:46;;;;;;;;;19.00;15.00;28.90;55.90;;;;;;111092;1247;50659;-72
2023/07/13 10:02:30;;;;;;;;;15.00;14.00;28.90;55.80;;;;;;111117;1247;49342;-68
2023/07/13 10:05:07;;;;;;;;;15.67;14.67;29.00;55.90;;;;;;111373;1243;53659;-74
2023/07/13 10:07:39;;;;;;;;;14.67;13.00;29.00;56.10;;;;;;110962;1248;44759;-74
2023/07/13 10:10:15;;;;;;;;;17.00;14.50;29.00;56.10;;;;;;111066;1244;48917;-74
2023/07/13 10:12:44;;;;;;;;;15.67;14.00;29.00;56.40;;;;;;111100;1246;49504;-72
2023/07/13 10:15:17;;;;;;;;;14.00;12.33;29.00;56.60;;;;;;111411;1244;54404;-77
2023/07/13 10:17:45;;;;;;;;;15.50;14.75;29.00;56.10;;;;;;110930;1247;44906;-75
2023/07/13 10:20:12;;;;;;;;;14.50;12.00;29.10;56.20;;;;;;111062;1241;49719;-72
2023/07/13 10:22:46;;;;;;;;;15.00;12.50;29.10;56.50;;;;;;111103;1247;50428;-71
2023/07/13 10:25:19;;;;;;;;;16.50;16.00;29.10;56.50;;;;;;111357;1246;54579;-72
2023/07/13 10:27:46;;;;;;;;;19.00;16.00;29.10;57.10;;;;;;111128;1247;44638;-73
2023/07/13 10:30:29;;;;;;;;;15.33;13.67;29.10;56.50;;;;;;111042;1244;49198;-69
2023/07/13 10:33:02;;;;;;;;;13.25;12.25;29.10;56.30;;;;;;111107;1248;49705;-76
2023/07/13 10:35:30;;;;;;;;;12.75;12.00;29.10;56.30;;;;;;111328;1244;53071;-73
2023/07/13 10:38:06;;;;;;;;;17.50;14.75;29.20;56.30;;;;;;111080;1246;44854;-75
2023/07/13 10:40:43;;;;;;;;;13.33;12.00;29.20;56.20;;;;;;111131;1243;49041;-78
2023/07/13 10:43:18;;;;;;;;;14.50;13.50;29.20;56.20;;;;;;111070;1243;50368;-72
2023/07/13 10:45:48;;;;;;;;;15.00;14.00;29.20;56.30;;;;;;111377;1247;53667;-76
2023/07/13 10:48:16;;;;;;;;;16.00;15.00;29.20;56.50;;;;;;111106;1247;45475;-75
2023/07/13 10:50:45;;;;;;;;;14.25;12.50;29.20;56.30;;;;;;111131;1241;48814;-76
2023/07/13 10:53:30;;;;;;;;;14.67;12.00;29.20;56.30;;;;;;111052;1248;49225;-72
2023/07/13 10:56:06;;;;;;;;;15.00;13.25;29.20;56.20;;;;;;111355;1247;55305;-71
2023/07/13 10:58:33;;;;;;;;;14.00;13.00;29.20;56.30;;;;;;111157;1241;45868;-72
2023/07/13 11:01:00;;;;;;;;;15.00;13.75;29.20;56.30;;;;;;111259;1241;48950;-72
2023/07/13 11:03:29;;;;;;;;;16.00;13.25;29.20;56.40;;;;;;111259;1241;49824;-72
2023/07/13 11:06:10;;;;;;;;;15.33;13.00;29.20;56.60;;;;;;111458;1247;53735;-71
2023/07/13 11:08:46;;;;;;;;;14.67;13.67;29.30;56.40;;;;;;111292;1247;45575;-76
2023/07/13 11:11:29;;;;;;;;;14.00;12.00;29.30;56.10;;;;;;111114;1242;49853;-78
2023/07/13 11:14:00;;;;;;;;;13.00;13.00;29.30;56.00;;;;;;111158;1244;49916;-74
2023/07/13 11:16:35;;;;;;;;;15.00;13.50;29.30;56.00;;;;;;111400;1247;53711;-78
2023/07/13 11:19:02;;;;;;;;;15.00;12.00;29.40;56.20;;;;;;111198;1241;44301;-78
2023/07/13 11:21:30;;;;;;;;;15.67;14.00;29.30;56.30;;;;;;111299;1246;49616;-69
2023/07/13 11:24:12;;;;;;;;;14.67;14.33;29.30;56.20;;;;;;111305;1246;50335;-68
2023/07/13 11:26:40;;;;;;;;;15.00;12.33;29.30;56.40;;;;;;111352;1247;53980;-69
2023/07/13 11:29:38;;;;;;;;;13.67;12.00;29.30;56.30;;;;;;111265;1247;44143;-74
2023/07/13 11:32:26;;;;;;;;;12.00;12.00;29.30;56.40;;;;;;111192;1244;48748;-70
2023/07/13 11:34:54;;;;;;;;;12.00;11.75;29.30;56.50;;;;;;111408;1244;49304;-71
2023/07/13 11:37:23;;;;;;;;;15.00;13.00;29.30;56.30;;;;;;111054;1247;53582;-70
2023/07/13 11:39:52;;;;;;;;;12.00;11.00;29.30;56.50;;;;;;111110;1243;45023;-71
2023/07/13 11:42:20;;;;;;;;;12.00;11.00;29.30;56.30;;;;;;111100;1241;50245;-76
2023/07/13 11:44:50;;;;;;;;;13.00;11.00;29.30;56.30;;;;;;111381;1243;49029;-76
2023/07/13 11:47:21;;;;;;;;;13.00;12.33;29.30;56.30;;;;;;111069;1241;53768;-73
2023/07/13 11:49:50;;;;;;;;;12.50;10.50;29.40;56.30;;;;;;111135;1247;44541;-74
2023/07/13 11:52:21;;;;;;;;;10.00;9.00;29.40;56.20;;;;;;111103;1247;49914;-77
2023/07/13 11:54:58;;;;;;;;;14.00;12.00;29.40;57.10;;;;;;111258;1247;49341;-77
2023/07/13 11:57:40;;;;;;;;;12.00;10.25;29.40;56.60;;;;;;111104;1241;54639;-77
2023/07/13 12:00:14;;;;;;;;;13.00;12.00;29.50;56.40;;;;;;111077;1244;44345;-76
2023/07/13 12:02:49;;;;;;;;;14.00;11.00;29.50;56.20;;;;;;111049;1242;49053;-78
2023/07/13 12:05:17;;;;;;;;;12.00;11.00;29.50;56.20;;;;;;111416;1244;49148;-77
2023/07/13 12:07:44;;;;;;;;;13.00;13.00;29.60;56.20;;;;;;111151;1244;53237;-79
2023/07/13 12:10:28;;;;;;;;;12.00;11.00;29.60;56.30;;;;;;111137;1247;44874;-79
2023/07/13 12:12:58;;;;;;;;;12.00;10.75;29.60;56.30;;;;;;111117;1241;49229;-79
2023/07/13 12:15:38;;;;;;;;;13.67;9.00;29.60;56.20;;;;;;111401;1246;50003;-79
2023/07/13 12:18:17;;;;;;;;;13.67;12.00;29.60;56.30;;;;;;111149;1247;54580;-80
2023/07/13 12:20:45;;;;;;;;;13.00;12.00;29.60;56.30;;;;;;111135;1247;44231;-79
2023/07/13 12:23:34;;;;;;;;;12.00;11.00;29.60;56.20;;;;;;111103;1241;49253;-80
2023/07/13 12:26:06;;;;;;;;;14.33;14.00;29.60;56.30;;;;;;111346;1247;49820;-78
2023/07/13 12:28:36;;;;;;;;;10.00;9.00;29.60;56.50;;;;;;111130;1247;53427;-78
2023/07/13 12:31:06;;;;;;;;;12.50;11.50;29.60;56.00;;;;;;111134;1247;44295;-80